Time;durP1;ratioP1;P1;durP2;ratioP2;P2;SDS_P1;SDS_P2;PMS_P1;PMS_P2;Temp;Humidity;BMP_temperature;BMP_pressure;BME280_temperature;BME280_humidity;BME280_pressure;Samples;Min_cycle;Max_cycle;Signal;HPM_P1;HPM_P2
2022/06/15 00:01:33;;;;;;;6.70;2.38;;;24.40;80.70;;;;;;5035392;28;20018;-77
2022/06/15 00:04:02;;;;;;;9.02;2.35;;;24.30;81.60;;;;;;5002900;28;20032;-77
2022/06/15 00:06:30;;;;;;;7.00;2.53;;;24.30;82.40;;;;;;5023850;28;20033;-76
2022/06/15 00:08:58;;;;;;;7.22;2.28;;;24.30;81.80;;;;;;5022972;28;20018;-76
2022/06/15 00:11:29;;;;;;;7.63;2.70;;;24.30;81.80;;;;;;5026709;28;20025;-76
2022/06/15 00:13:58;;;;;;;8.20;2.90;;;24.20;82.00;;;;;;5038905;28;20041;-76
2022/06/15 00:16:24;;;;;;;5.60;2.50;;;24.30;82.80;;;;;;5035326;28;20538;-76
2022/06/15 00:18:50;;;;;;;9.23;2.70;;;24.20;83.50;;;;;;5036331;28;20029;-76
2022/06/15 00:21:17;;;;;;;7.60;2.72;;;24.20;83.10;;;;;;5038970;28;20018;-75
2022/06/15 00:23:44;;;;;;;8.65;2.30;;;24.20;83.60;;;;;;5026629;28;20121;-76
2022/06/15 00:26:10;;;;;;;9.43;2.70;;;24.20;83.70;;;;;;5033822;28;20040;-76
2022/06/15 00:28:36;;;;;;;9.85;2.88;;;24.20;84.10;;;;;;5034021;28;20029;-75
2022/06/15 00:31:03;;;;;;;16.52;3.40;;;24.10;84.50;;;;;;5036018;28;20573;-76
2022/06/15 00:33:29;;;;;;;10.52;2.55;;;24.10;83.80;;;;;;5034723;28;20513;-75
2022/06/15 00:36:01;;;;;;;9.50;3.22;;;24.10;84.60;;;;;;5037882;28;20017;-76
2022/06/15 00:38:38;;;;;;;6.20;2.72;;;24.00;84.90;;;;;;5037359;28;20025;-76
2022/06/15 00:41:06;;;;;;;9.50;3.35;;;24.00;85.00;;;;;;5002176;28;20040;-75
2022/06/15 00:43:41;;;;;;;7.60;2.75;;;24.00;85.10;;;;;;5022243;28;20110;-75
2022/06/15 00:46:28;;;;;;;8.30;3.03;;;24.00;85.60;;;;;;5010990;28;20091;-75
2022/06/15 00:49:04;;;;;;;13.80;3.03;;;24.00;85.90;;;;;;5025908;28;20528;-75
2022/06/15 00:51:30;;;;;;;11.48;2.55;;;23.90;88.00;;;;;;5024909;28;20045;-75
2022/06/15 00:53:58;;;;;;;9.45;3.05;;;23.80;88.70;;;;;;5010724;28;20076;-75
2022/06/15 00:56:27;;;;;;;12.05;2.25;;;23.70;90.20;;;;;;5026625;28;20081;-75
2022/06/15 00:58:59;;;;;;;7.18;3.05;;;23.60;90.20;;;;;;5031620;28;20424;-76
2022/06/15 01:01:26;;;;;;;8.50;2.75;;;23.50;90.30;;;;;;5029933;28;20025;-75
2022/06/15 01:03:54;;;;;;;9.48;3.38;;;23.40;91.00;;;;;;5016169;28;20144;-75
2022/06/15 01:06:38;;;;;;;6.97;2.78;;;23.30;91.50;;;;;;5032785;28;20462;-75
2022/06/15 01:09:25;;;;;;;6.78;2.83;;;23.20;92.00;;;;;;5034179;28;20434;-75
2022/06/15 01:12:21;;;;;;;10.93;3.35;;;23.20;92.50;;;;;;5036386;28;20120;-75
2022/06/15 01:15:02;;;;;;;7.78;2.50;;;23.10;92.90;;;;;;5037126;28;20025;-75
2022/06/15 01:17:51;;;;;;;7.72;3.38;;;23.00;93.10;;;;;;5026631;28;20055;-75
2022/06/15 01:20:44;;;;;;;6.80;3.33;;;22.90;93.30;;;;;;5030259;28;20033;-75
2022/06/15 01:23:32;;;;;;;9.00;2.72;;;22.80;93.90;;;;;;5030038;28;20060;-75
2022/06/15 01:26:23;;;;;;;8.77;3.00;;;22.70;93.80;;;;;;5031998;28;20069;-75
2022/06/15 01:28:54;;;;;;;;;;;22.70;94.40;;;;;;5035070;28;20033;-75
2022/06/15 01:31:30;;;;;;;5.60;2.70;;;22.50;94.50;;;;;;5019770;28;19987;-75
2022/06/15 01:34:24;;;;;;;6.03;2.88;;;22.50;94.90;;;;;;5004497;28;20056;-75
2022/06/15 01:37:34;;;;;;;6.97;2.75;;;22.50;94.80;;;;;;5001571;28;20049;-75
2022/06/15 01:40:22;;;;;;;13.37;2.83;;;22.40;95.10;;;;;;5022955;28;20048;-75
2022/06/15 01:43:10;;;;;;;6.40;2.35;;;22.40;95.30;;;;;;5023940;28;20395;-75
2022/06/15 01:45:36;;;;;;;11.80;2.50;;;22.30;95.60;;;;;;5029590;28;20414;-75
2022/06/15 01:48:06;;;;;;;8.43;3.35;;;22.20;95.30;;;;;;5024452;28;20096;-75
2022/06/15 01:50:38;;;;;;;7.95;2.58;;;22.20;96.00;;;;;;5007432;28;20053;-75
2022/06/15 01:53:35;;;;;;;8.48;2.47;;;22.20;95.70;;;;;;5028510;28;20018;-75
2022/06/15 01:56:29;;;;;;;8.65;3.30;;;22.20;95.70;;;;;;5031587;28;20559;-75
2022/06/15 01:59:01;;;;;;;11.65;3.15;;;22.20;96.00;;;;;;5027353;28;20059;-75
2022/06/15 02:01:36;;;;;;;10.20;2.60;;;22.20;96.00;;;;;;5035303;28;20029;-75
2022/06/15 02:04:13;;;;;;;11.68;2.75;;;22.20;96.10;;;;;;5007787;28;20030;-75
2022/06/15 02:06:43;;;;;;;11.55;3.28;;;22.20;96.20;;;;;;5018424;28;20105;-75
2022/06/15 02:09:15;;;;;;;10.90;3.27;;;22.20;96.20;;;;;;5020113;28;20076;-75
2022/06/15 02:11:43;;;;;;;8.30;2.65;;;22.20;96.20;;;;;;5004243;28;20024;-75
2022/06/15 02:14:14;;;;;;;9.73;3.10;;;22.20;96.10;;;;;;5013335;28;20116;-75
2022/06/15 02:17:01;;;;;;;12.60;3.03;;;22.10;96.80;;;;;;5033140;28;20041;-75
2022/06/15 02:19:33;;;;;;;11.52;3.00;;;22.10;97.30;;;;;;5029732;28;20033;-75
2022/06/15 02:22:07;;;;;;;11.15;3.45;;;22.10;96.70;;;;;;5009493;28;20018;-75
2022/06/15 02:24:34;;;;;;;8.80;2.55;;;22.10;96.60;;;;;;5025136;28;20028;-75
2022/06/15 02:27:02;;;;;;;8.70;3.10;;;22.10;97.40;;;;;;5030437;28;20022;-75
2022/06/15 02:29:32;;;;;;;14.15;3.13;;;22.00;97.40;;;;;;5034640;28;20061;-75
2022/06/15 02:31:58;;;;;;;13.98;3.42;;;22.00;97.10;;;;;;5016278;28;20021;-75
2022/06/15 02:34:25;;;;;;;8.18;3.22;;;22.00;97.70;;;;;;5018867;28;20489;-75
2022/06/15 02:36:51;;;;;;;8.82;2.58;;;21.90;97.30;;;;;;5005597;28;20026;-75
2022/06/15 02:39:17;;;;;;;8.23;3.05;;;21.90;97.00;;;;;;5019227;28;20029;-75
2022/06/15 02:41:43;;;;;;;10.23;3.00;;;21.90;97.50;;;;;;5019973;28;20080;-75
2022/06/15 02:44:12;;;;;;;13.20;3.40;;;21.90;97.30;;;;;;5020631;28;20101;-75
2022/06/15 02:46:43;;;;;;;10.70;3.53;;;21.90;97.50;;;;;;5004513;28;20044;-75
2022/06/15 02:49:09;;;;;;;8.20;3.17;;;21.90;97.30;;;;;;5023364;28;20041;-75
2022/06/15 02:51:41;;;;;;;6.72;3.13;;;21.80;98.00;;;;;;5007072;28;20057;-75
2022/06/15 02:54:16;;;;;;;8.35;3.22;;;21.80;97.60;;;;;;5026281;28;20018;-75
2022/06/15 02:56:43;;;;;;;20.92;3.50;;;21.70;97.90;;;;;;5028358;28;20067;-76
2022/06/15 02:59:09;;;;;;;7.72;3.13;;;21.70;97.80;;;;;;5037595;28;20064;-75
2022/06/15 03:01:35;;;;;;;13.93;3.90;;;21.70;97.30;;;;;;5033710;28;20025;-75
2022/06/15 03:04:01;;;;;;;10.13;3.05;;;21.80;97.70;;;;;;5035805;28;20036;-75
2022/06/15 03:06:27;;;;;;;11.10;3.70;;;21.80;97.30;;;;;;5035586;28;20034;-75
2022/06/15 03:08:58;;;;;;;9.57;3.17;;;21.90;97.50;;;;;;5039174;28;20025;-76
2022/06/15 03:11:24;;;;;;;12.93;3.35;;;21.90;97.40;;;;;;5038966;28;20042;-75
2022/06/15 03:13:51;;;;;;;7.47;3.00;;;21.80;97.80;;;;;;5018553;28;20430;-75
2022/06/15 03:16:18;;;;;;;11.20;3.70;;;21.80;98.00;;;;;;5021837;28;20155;-75
2022/06/15 03:18:44;;;;;;;13.20;3.50;;;21.80;97.70;;;;;;5029890;28;20021;-75
2022/06/15 03:21:10;;;;;;;14.15;3.60;;;21.70;98.20;;;;;;5022363;28;20593;-75
2022/06/15 03:23:36;;;;;;;7.95;3.17;;;21.70;98.40;;;;;;5019056;28;20060;-75
2022/06/15 03:26:03;;;;;;;7.78;3.42;;;21.70;98.60;;;;;;5020460;28;20434;-75
2022/06/15 03:28:30;;;;;;;8.00;3.15;;;21.70;98.40;;;;;;5035554;28;20014;-75
2022/06/15 03:30:56;;;;;;;5.97;2.97;;;21.60;99.00;;;;;;5014945;28;20022;-75
2022/06/15 03:33:22;;;;;;;8.93;3.47;;;21.50;99.20;;;;;;5014191;28;20658;-75
2022/06/15 03:35:49;;;;;;;6.70;2.92;;;21.50;99.20;;;;;;5038093;28;20025;-75
2022/06/15 03:38:15;;;;;;;8.07;3.10;;;21.50;99.20;;;;;;5036409;28;20018;-75
2022/06/15 03:40:46;;;;;;;11.35;3.50;;;21.50;99.30;;;;;;5039214;28;20025;-75
2022/06/15 03:43:14;;;;;;;8.30;3.15;;;21.40;99.50;;;;;;5027227;28;20038;-75
2022/06/15 03:45:42;;;;;;;8.90;3.22;;;21.50;99.20;;;;;;5021746;28;20029;-75
2022/06/15 03:48:09;;;;;;;12.02;2.92;;;21.40;99.30;;;;;;5005101;28;20050;-75
2022/06/15 03:50:36;;;;;;;8.45;3.25;;;21.30;99.30;;;;;;5025073;28;20100;-75
2022/06/15 03:53:03;;;;;;;8.00;3.30;;;21.30;99.10;;;;;;5016329;28;20045;-75
2022/06/15 03:55:29;;;;;;;6.95;2.70;;;21.30;99.10;;;;;;5029482;28;20028;-76
2022/06/15 03:57:56;;;;;;;8.90;2.88;;;21.30;99.10;;;;;;4998270;28;20022;-76
2022/06/15 04:00:23;;;;;;;12.60;3.22;;;21.30;98.40;;;;;;5032791;28;20106;-75
2022/06/15 04:02:50;;;;;;;12.23;3.00;;;21.30;98.80;;;;;;5012429;28;20026;-75
2022/06/15 04:05:19;;;;;;;13.40;3.58;;;21.30;98.90;;;;;;5035853;28;20032;-75
2022/06/15 04:10:29;;;;;;;6.32;2.88;;;21.20;99.50;;;;;;5037579;28;20032;-75
2022/06/15 04:12:55;;;;;;;18.75;3.83;;;21.20;99.70;;;;;;5037439;28;20017;-75
2022/06/15 04:15:21;;;;;;;13.18;3.80;;;21.20;99.70;;;;;;5032723;28;20014;-75
2022/06/15 04:17:47;;;;;;;15.20;3.55;;;21.20;99.90;;;;;;5004842;28;20036;-75
2022/06/15 04:20:34;;;;;;;8.77;3.75;;;21.10;99.90;;;;;;5021487;28;20018;-75
2022/06/15 04:23:12;;;;;;;14.63;3.97;;;21.00;99.90;;;;;;5022593;28;20072;-75
2022/06/15 04:25:41;;;;;;;16.88;3.30;;;21.00;99.90;;;;;;5026016;28;20034;-75
2022/06/15 04:28:10;;;;;;;10.07;3.28;;;20.90;99.90;;;;;;5034467;28;20030;-76
2022/06/15 04:30:35;;;;;;;7.18;3.08;;;20.80;99.90;;;;;;5029931;28;20100;-76
2022/06/15 04:33:01;;;;;;;8.32;3.20;;;20.80;99.90;;;;;;5031208;28;20097;-76
2022/06/15 04:35:28;;;;;;;13.25;3.33;;;20.80;99.90;;;;;;5031936;28;20021;-75
2022/06/15 04:37:54;;;;;;;12.20;3.83;;;20.80;99.90;;;;;;5035268;28;20491;-75
2022/06/15 04:40:20;;;;;;;8.00;3.67;;;20.70;99.90;;;;;;5036341;28;20025;-75
2022/06/15 04:42:46;;;;;;;14.88;3.40;;;20.70;99.90;;;;;;5036502;28;20031;-75
2022/06/15 04:45:13;;;;;;;8.05;3.70;;;20.70;99.90;;;;;;5035413;28;20030;-76
2022/06/15 04:47:39;;;;;;;15.30;3.55;;;20.60;99.90;;;;;;5019894;28;20075;-75
2022/06/15 04:50:06;;;;;;;9.25;3.72;;;20.60;99.90;;;;;;5035951;28;20108;-76
2022/06/15 04:52:32;;;;;;;7.85;3.50;;;20.60;99.90;;;;;;5002635;28;20544;-75
2022/06/15 04:54:58;;;;;;;10.73;3.10;;;20.60;99.90;;;;;;5023046;28;20481;-75
2022/06/15 04:57:24;;;;;;;8.10;3.30;;;20.60;99.90;;;;;;5022267;28;20427;-76
2022/06/15 04:59:50;;;;;;;10.45;3.15;;;20.80;99.90;;;;;;5025885;28;20025;-75
2022/06/15 05:02:16;;;;;;;8.43;3.00;;;21.00;99.90;;;;;;5006608;28;20026;-76
2022/06/15 05:04:42;;;;;;;7.22;2.95;;;21.10;99.30;;;;;;5009655;28;20169;-76
2022/06/15 05:07:08;;;;;;;7.53;2.90;;;21.40;98.20;;;;;;5010399;28;20038;-76
2022/06/15 05:09:34;;;;;;;8.07;2.53;;;21.50;97.60;;;;;;5011189;28;20017;-75
2022/06/15 05:12:00;;;;;;;6.00;2.85;;;21.70;97.30;;;;;;5031744;28;20379;-75
2022/06/15 05:14:26;;;;;;;10.82;2.85;;;21.80;96.60;;;;;;5030267;28;20097;-75
2022/06/15 05:16:52;;;;;;;6.38;3.13;;;21.90;96.70;;;;;;5034280;28;20053;-75
2022/06/15 05:19:18;;;;;;;8.25;2.88;;;22.10;96.60;;;;;;5015401;28;20028;-75
2022/06/15 05:21:45;;;;;;;7.63;2.58;;;22.10;96.80;;;;;;5036388;28;20033;-75
2022/06/15 05:24:11;;;;;;;9.52;2.70;;;22.20;97.00;;;;;;5016318;28;20025;-75
2022/06/15 05:26:38;;;;;;;7.65;2.85;;;22.30;96.50;;;;;;5006861;28;20432;-75
2022/06/15 05:29:04;;;;;;;7.43;3.30;;;22.30;96.90;;;;;;5030118;28;20505;-75
2022/06/15 05:31:30;;;;;;;6.93;2.95;;;22.30;95.60;;;;;;5026978;28;20045;-75
2022/06/15 05:33:58;;;;;;;4.68;2.67;;;22.40;96.50;;;;;;5011198;28;20104;-76
2022/06/15 05:36:31;;;;;;;9.13;2.78;;;22.50;95.60;;;;;;5014744;28;20097;-76
2022/06/15 05:38:57;;;;;;;8.35;2.95;;;22.60;95.70;;;;;;5034850;28;20105;-77
2022/06/15 05:41:24;;;;;;;9.70;3.20;;;22.60;95.50;;;;;;5031894;28;20056;-76
2022/06/15 05:43:51;;;;;;;8.20;3.28;;;22.70;95.40;;;;;;5030511;28;20052;-77
2022/06/15 05:46:23;;;;;;;6.28;3.25;;;22.70;95.50;;;;;;5009916;28;20022;-75
2022/06/15 05:48:49;;;;;;;4.93;2.42;;;22.80;95.30;;;;;;5022798;28;20038;-76
2022/06/15 05:51:15;;;;;;;12.52;3.45;;;22.80;95.70;;;;;;5021537;28;20026;-76
2022/06/15 05:53:40;;;;;;;8.30;2.67;;;22.90;96.10;;;;;;5018172;28;20568;-77
2022/06/15 05:56:06;;;;;;;7.07;3.25;;;23.00;95.80;;;;;;5005930;28;20489;-77
2022/06/15 05:58:32;;;;;;;11.73;3.42;;;23.00;95.70;;;;;;5030705;28;20029;-75
2022/06/15 06:01:10;;;;;;;6.10;2.88;;;23.00;95.10;;;;;;5026401;28;20025;-76
2022/06/15 06:03:36;;;;;;;5.85;2.67;;;23.10;95.40;;;;;;5025549;28;20032;-76
2022/06/15 06:06:02;;;;;;;6.97;3.00;;;23.30;95.60;;;;;;5012281;28;20089;-75
2022/06/15 06:08:28;;;;;;;7.25;2.38;;;23.30;94.80;;;;;;5034721;28;20026;-76
2022/06/15 06:10:54;;;;;;;6.32;3.03;;;23.40;94.60;;;;;;5036019;28;20025;-77
2022/06/15 06:13:19;;;;;;;10.48;3.00;;;23.30;94.70;;;;;;5029067;28;20516;-75
2022/06/15 06:15:45;;;;;;;7.75;3.03;;;23.40;95.10;;;;;;5025546;28;20022;-77
2022/06/15 06:18:11;;;;;;;8.77;2.92;;;23.50;94.00;;;;;;5019160;28;20048;-75
2022/06/15 06:20:37;;;;;;;7.78;2.55;;;23.60;94.10;;;;;;5003371;28;20030;-76
2022/06/15 06:23:03;;;;;;;6.53;2.88;;;23.70;95.20;;;;;;5022555;28;20014;-76
2022/06/15 06:25:29;;;;;;;7.40;2.65;;;23.80;95.80;;;;;;5030993;28;20505;-75
2022/06/15 06:27:55;;;;;;;7.93;3.10;;;23.90;94.60;;;;;;5000751;28;20032;-76
2022/06/15 06:30:21;;;;;;;9.20;3.10;;;24.10;94.50;;;;;;5019679;28;20018;-76
2022/06/15 06:32:49;;;;;;;7.80;2.55;;;24.20;94.30;;;;;;5002915;28;20113;-76
2022/06/15 06:35:15;;;;;;;9.98;3.28;;;24.20;93.80;;;;;;5004354;28;20030;-76
2022/06/15 06:37:41;;;;;;;9.15;2.65;;;24.30;94.20;;;;;;5019893;28;20113;-76
2022/06/15 06:40:09;;;;;;;6.75;2.35;;;24.40;94.30;;;;;;5018680;28;20037;-78
2022/06/15 06:42:35;;;;;;;6.13;2.78;;;24.60;92.90;;;;;;5019609;28;20029;-75
2022/06/15 06:45:01;;;;;;;9.10;2.70;;;24.60;93.90;;;;;;5032803;28;20029;-76
2022/06/15 06:47:27;;;;;;;10.75;2.97;;;24.60;93.50;;;;;;5010815;28;20095;-76
2022/06/15 06:49:52;;;;;;;7.10;2.78;;;24.60;94.00;;;;;;5001544;28;20034;-76
2022/06/15 06:52:18;;;;;;;7.10;2.63;;;24.80;93.90;;;;;;5001914;28;20026;-76
2022/06/15 06:54:44;;;;;;;5.95;2.40;;;24.90;93.60;;;;;;5022036;28;20025;-76
2022/06/15 06:57:10;;;;;;;9.20;2.67;;;25.00;93.20;;;;;;5022994;28;20033;-77
2022/06/15 06:59:36;;;;;;;7.00;2.72;;;25.00;92.90;;;;;;5023709;28;20399;-76
2022/06/15 07:02:02;;;;;;;5.68;2.40;;;25.00;92.80;;;;;;5027589;28;20029;-78
2022/06/15 07:04:28;;;;;;;28.98;4.35;;;25.10;93.40;;;;;;5032955;28;20025;-75
2022/06/15 07:06:56;;;;;;;7.60;2.83;;;25.20;93.50;;;;;;5015879;28;20041;-75
2022/06/15 07:09:22;;;;;;;7.50;2.78;;;25.30;93.60;;;;;;5033606;28;20030;-74
2022/06/15 07:11:48;;;;;;;6.70;2.30;;;25.40;92.30;;;;;;5021465;28;20026;-77
2022/06/15 07:14:14;;;;;;;10.63;2.88;;;25.50;92.60;;;;;;5012604;28;20485;-77
2022/06/15 07:16:42;;;;;;;8.20;2.90;;;25.60;92.20;;;;;;5017626;28;20109;-77
2022/06/15 07:19:08;;;;;;;9.43;2.88;;;25.80;92.40;;;;;;5030067;28;20501;-77
2022/06/15 07:21:34;;;;;;;11.98;2.92;;;25.80;92.20;;;;;;5033255;28;20081;-77
2022/06/15 07:24:00;;;;;;;8.05;2.28;;;25.90;91.60;;;;;;5025843;28;20093;-76
2022/06/15 07:26:36;;;;;;;6.80;3.08;;;26.00;91.60;;;;;;5034872;28;20048;-77
2022/06/15 07:29:02;;;;;;;6.43;2.38;;;26.10;91.80;;;;;;5035000;28;20022;-77
2022/06/15 07:31:35;;;;;;;6.75;2.45;;;26.10;92.50;;;;;;5025889;28;20033;-78
2022/06/15 07:34:01;;;;;;;9.27;2.63;;;26.00;91.80;;;;;;5029476;28;20032;-76
2022/06/15 07:36:28;;;;;;;6.75;2.97;;;26.10;91.70;;;;;;5035001;28;20025;-76
2022/06/15 07:38:56;;;;;;;5.05;2.88;;;26.20;91.70;;;;;;5025972;28;20021;-77
2022/06/15 07:41:23;;;;;;;11.07;2.80;;;26.30;92.10;;;;;;5021613;28;20032;-77
2022/06/15 07:43:49;;;;;;;4.50;2.15;;;26.40;91.20;;;;;;5031515;28;20119;-77
2022/06/15 07:46:16;;;;;;;6.07;2.20;;;26.60;91.10;;;;;;5021340;28;20189;-76
2022/06/15 07:51:38;;;;;;;7.05;2.83;;;26.80;92.40;;;;;;5037181;28;20028;-77
2022/06/15 07:54:05;;;;;;;9.65;2.00;;;26.70;91.70;;;;;;5038958;28;20367;-77
2022/06/15 07:56:32;;;;;;;6.25;2.00;;;26.90;91.00;;;;;;5033242;28;20627;-78
2022/06/15 07:58:58;;;;;;;8.48;2.10;;;26.90;90.10;;;;;;5039309;28;20026;-77
2022/06/15 08:01:24;;;;;;;10.65;2.63;;;26.80;91.10;;;;;;5031876;28;20445;-76
2022/06/15 08:03:50;;;;;;;6.78;2.42;;;26.70;91.30;;;;;;5039408;28;20040;-76
2022/06/15 08:06:17;;;;;;;8.27;2.60;;;26.90;92.00;;;;;;5038837;28;20026;-76
2022/06/15 08:08:43;;;;;;;8.90;2.90;;;27.00;91.40;;;;;;5023919;28;20400;-76
2022/06/15 08:11:10;;;;;;;8.27;2.65;;;27.20;90.70;;;;;;5037634;28;20025;-76
2022/06/15 08:13:36;;;;;;;12.15;3.38;;;27.30;90.00;;;;;;5038376;28;20067;-78
2022/06/15 08:16:02;;;;;;;6.70;2.40;;;27.40;89.50;;;;;;5031093;28;20025;-77
2022/06/15 08:18:31;;;;;;;8.00;2.63;;;27.50;90.30;;;;;;5019194;28;20018;-77
2022/06/15 08:21:02;;;;;;;9.43;2.25;;;27.60;91.10;;;;;;5007795;28;20155;-77
2022/06/15 08:23:35;;;;;;;7.80;2.40;;;27.60;90.50;;;;;;5022442;28;20113;-76
2022/06/15 08:26:06;;;;;;;8.40;2.28;;;27.70;90.30;;;;;;5024372;28;20017;-76
2022/06/15 08:28:33;;;;;;;;;;;27.70;90.10;;;;;;5026200;28;20387;-77
2022/06/15 08:31:00;;;;;;;9.40;2.58;;;27.80;90.20;;;;;;5032223;28;19909;-77
2022/06/15 08:33:26;;;;;;;6.93;2.63;;;27.90;90.00;;;;;;5009887;28;20026;-76
2022/06/15 08:35:52;;;;;;;4.57;1.98;;;28.00;89.70;;;;;;5036464;28;20033;-77
2022/06/15 08:38:22;;;;;;;8.35;2.45;;;28.10;90.30;;;;;;5020692;28;20036;-76
2022/06/15 08:41:02;;;;;;;9.05;2.78;;;28.10;90.20;;;;;;5035220;28;20383;-77
2022/06/15 08:43:46;;;;;;;6.43;2.65;;;28.20;89.00;;;;;;5014973;28;20033;-77
2022/06/15 08:46:32;;;;;;;6.07;1.95;;;28.30;88.10;;;;;;5010348;28;20068;-77
2022/06/15 08:49:30;;;;;;;8.35;2.10;;;28.30;89.20;;;;;;5024722;28;20072;-76
2022/06/15 08:52:08;;;;;;;7.55;2.10;;;28.50;89.10;;;;;;5036242;28;20088;-77
2022/06/15 08:54:47;;;;;;;7.28;2.38;;;28.70;86.10;;;;;;5032991;28;20029;-76
2022/06/15 08:57:26;;;;;;;5.75;2.17;;;28.70;83.90;;;;;;5034716;28;20057;-76
2022/06/15 08:59:59;;;;;;;5.65;2.28;;;28.80;82.10;;;;;;5033418;28;20021;-75
2022/06/15 09:02:36;;;;;;;6.40;2.33;;;28.90;83.90;;;;;;5036470;28;20030;-75
2022/06/15 09:05:32;;;;;;;6.72;2.55;;;28.90;84.00;;;;;;5007476;28;20498;-75
2022/06/15 09:08:09;;;;;;;10.65;2.47;;;28.80;84.50;;;;;;5004145;28;20033;-76
2022/06/15 09:10:50;;;;;;;7.55;2.25;;;29.00;84.80;;;;;;5032888;28;20378;-76
2022/06/15 09:13:47;;;;;;;;;;;29.10;81.30;;;;;;5023799;28;20037;-77
2022/06/15 09:16:33;;;;;;;4.13;2.10;;;29.00;81.10;;;;;;5026134;28;19932;-77
2022/06/15 09:19:14;;;;;;;4.95;2.22;;;29.10;79.00;;;;;;5037013;28;20057;-76
2022/06/15 09:21:52;;;;;;;7.05;1.45;;;29.30;80.00;;;;;;5032358;28;20096;-76
2022/06/15 09:24:48;;;;;;;10.10;2.53;;;29.50;78.70;;;;;;5027887;28;20433;-76
2022/06/15 09:27:25;;;;;;;5.28;2.35;;;29.60;78.90;;;;;;4979269;28;20178;-76
2022/06/15 09:30:04;;;;;;;9.10;1.90;;;29.70;74.60;;;;;;5034223;28;20018;-76
2022/06/15 09:32:43;;;;;;;6.20;2.17;;;29.70;74.90;;;;;;5036511;28;20009;-77
2022/06/15 09:35:16;;;;;;;5.05;1.90;;;29.70;74.30;;;;;;5035027;28;20025;-77
2022/06/15 09:37:48;;;;;;;6.88;2.10;;;29.90;73.30;;;;;;5028927;28;20047;-77
2022/06/15 09:40:15;;;;;;;10.80;2.42;;;30.10;70.60;;;;;;5016737;28;20118;-76
2022/06/15 09:42:56;;;;;;;8.30;2.15;;;30.00;70.90;;;;;;5012091;28;20018;-77
2022/06/15 09:45:30;;;;;;;8.45;1.60;;;30.10;71.70;;;;;;5036766;28;20040;-77
2022/06/15 09:48:06;;;;;;;5.05;1.58;;;30.20;72.80;;;;;;5031380;28;20065;-77
2022/06/15 09:50:41;;;;;;;6.97;1.98;;;30.20;71.50;;;;;;5034110;28;20091;-76
2022/06/15 09:53:13;;;;;;;7.43;1.58;;;30.20;71.00;;;;;;5018954;28;20022;-77
2022/06/15 09:55:44;;;;;;;8.52;1.83;;;30.40;71.80;;;;;;5036325;28;20099;-77
2022/06/15 09:58:14;;;;;;;8.32;2.25;;;30.40;71.80;;;;;;5033451;28;20026;-77
2022/06/15 10:00:42;;;;;;;8.30;2.00;;;30.60;70.80;;;;;;5019653;28;20052;-77
2022/06/15 10:03:28;;;;;;;11.02;1.83;;;30.70;70.20;;;;;;5032504;28;20025;-77
2022/06/15 10:06:00;;;;;;;8.02;1.52;;;30.70;69.80;;;;;;5026078;28;20026;-77
2022/06/15 10:08:26;;;;;;;5.65;1.63;;;30.60;67.60;;;;;;5036340;28;20025;-77
2022/06/15 10:10:55;;;;;;;7.13;2.10;;;30.60;70.00;;;;;;5036010;28;20036;-77
2022/06/15 10:13:21;;;;;;;8.93;2.53;;;30.70;68.90;;;;;;5021688;28;20108;-77
2022/06/15 10:16:14;;;;;;;10.13;1.90;;;30.80;67.50;;;;;;5025814;28;20061;-76
2022/06/15 10:18:52;;;;;;;5.70;1.60;;;30.80;68.40;;;;;;5017726;28;20021;-77
2022/06/15 10:21:26;;;;;;;8.18;1.98;;;31.10;69.10;;;;;;5035972;28;20053;-78
2022/06/15 10:24:06;;;;;;;4.93;1.85;;;31.00;67.30;;;;;;5034089;28;20029;-77
2022/06/15 10:26:41;;;;;;;4.82;1.65;;;31.10;67.80;;;;;;5030810;28;20026;-77
2022/06/15 10:29:15;;;;;;;6.50;1.63;;;31.20;66.80;;;;;;5032769;28;20025;-78
2022/06/15 10:31:55;;;;;;;9.05;1.80;;;31.30;70.40;;;;;;5028264;28;20037;-77
2022/06/15 10:34:47;;;;;;;4.10;1.67;;;31.40;67.20;;;;;;5033485;28;20024;-77
2022/06/15 10:37:32;;;;;;;9.45;1.75;;;31.40;66.50;;;;;;5005199;28;20080;-78
2022/06/15 10:40:25;;;;;;;12.93;2.10;;;31.50;66.30;;;;;;5016356;28;20018;-78
2022/06/15 10:43:00;;;;;;;8.18;2.00;;;31.40;66.70;;;;;;5018617;28;20375;-78
2022/06/15 10:45:32;;;;;;;6.53;1.58;;;31.40;67.00;;;;;;5032820;28;20025;-78
2022/06/15 10:48:00;;;;;;;9.00;1.98;;;31.50;66.10;;;;;;5017667;28;20064;-76
2022/06/15 10:50:31;;;;;;;9.23;2.00;;;31.50;66.40;;;;;;5011193;28;20048;-77
2022/06/15 10:53:01;;;;;;;9.90;1.88;;;31.60;67.80;;;;;;5005247;28;20104;-77
2022/06/15 11:04:04;;;;;;;8.88;2.25;;;31.90;67.00;;;;;;5029541;28;20040;-77
2022/06/15 11:06:38;;;;;;;8.82;1.92;;;32.00;67.50;;;;;;5029642;28;20021;-77
2022/06/15 11:09:07;;;;;;;9.15;2.10;;;32.10;66.30;;;;;;5037911;28;20025;-78
2022/06/15 11:11:35;;;;;;;12.18;2.33;;;32.20;69.50;;;;;;5030982;28;20020;-77
2022/06/15 11:14:12;;;;;;;10.88;2.35;;;32.30;66.60;;;;;;5022306;28;20030;-77
2022/06/15 11:19:26;;;;;;;9.07;2.30;;;32.30;66.80;;;;;;5022660;28;20080;-78
2022/06/15 11:21:52;;;;;;;5.90;2.10;;;32.30;66.60;;;;;;5021957;28;20025;-76
2022/06/15 11:24:21;;;;;;;6.18;1.90;;;32.30;66.60;;;;;;5036621;28;20076;-77
2022/06/15 11:27:01;;;;;;;10.50;2.28;;;32.30;65.60;;;;;;5024079;28;20434;-77
2022/06/15 11:29:27;;;;;;;;;;;32.20;67.50;;;;;;5009619;28;20026;-77
2022/06/15 11:31:55;;;;;;;6.65;2.47;;;32.30;69.20;;;;;;5014087;28;19905;-77
2022/06/15 11:34:27;;;;;;;14.15;2.33;;;32.60;67.70;;;;;;5032081;28;20509;-76
2022/06/15 11:36:58;;;;;;;8.50;2.25;;;32.70;66.80;;;;;;5006140;28;20022;-76
2022/06/15 11:39:32;;;;;;;9.65;2.40;;;32.70;67.10;;;;;;5030604;28;20068;-77
2022/06/15 11:41:58;;;;;;;6.63;2.05;;;32.70;67.50;;;;;;5036931;28;20437;-77
2022/06/15 11:44:35;;;;;;;9.02;2.55;;;32.80;67.80;;;;;;5039142;28;20026;-77
2022/06/15 11:47:20;;;;;;;12.45;2.75;;;32.80;66.70;;;;;;5038520;28;20379;-77
2022/06/15 11:49:47;;;;;;;9.60;2.17;;;32.80;66.50;;;;;;5038752;28;20113;-77
2022/06/15 11:52:31;;;;;;;9.68;2.17;;;32.90;66.50;;;;;;5039165;28;20017;-78
2022/06/15 11:55:39;;;;;;;11.00;2.67;;;32.80;67.20;;;;;;5038998;28;20013;-77
2022/06/15 11:58:21;;;;;;;8.60;2.42;;;33.00;67.90;;;;;;5038923;28;20474;-77
2022/06/15 12:00:59;;;;;;;18.23;2.72;;;33.10;66.30;;;;;;5039054;28;20024;-77
2022/06/15 12:04:02;;;;;;;14.77;2.28;;;33.20;64.30;;;;;;5038571;28;20040;-77
2022/06/15 12:06:37;;;;;;;9.50;2.75;;;33.30;66.00;;;;;;5038760;28;20140;-77
2022/06/15 12:09:27;;;;;;;12.98;2.83;;;33.40;65.60;;;;;;5020820;28;20021;-77
2022/06/15 12:15:05;;;;;;;12.15;3.00;;;33.50;65.90;;;;;;5038508;28;20247;-77
2022/06/15 12:18:10;;;;;;;11.90;2.78;;;33.60;64.50;;;;;;5038386;28;20037;-77
2022/06/15 12:20:41;;;;;;;14.70;2.58;;;33.70;65.80;;;;;;5007794;28;20025;-76
2022/06/15 12:23:37;;;;;;;14.10;2.40;;;33.80;62.50;;;;;;5038588;28;20056;-77
2022/06/15 12:26:24;;;;;;;18.73;3.03;;;33.70;62.40;;;;;;5020472;28;20053;-77
2022/06/15 12:29:02;;;;;;;9.48;2.40;;;33.80;62.90;;;;;;5037885;28;20541;-77
2022/06/15 12:31:49;;;;;;;9.13;2.30;;;33.70;60.40;;;;;;5037871;28;20022;-77
2022/06/15 12:34:46;;;;;;;7.82;2.30;;;33.80;61.70;;;;;;5029667;28;20405;-76
2022/06/15 12:37:36;;;;;;;9.90;2.30;;;33.80;61.80;;;;;;5025290;28;20049;-77
2022/06/15 12:40:50;;;;;;;11.27;2.40;;;33.90;63.20;;;;;;5014782;28;20604;-78
2022/06/15 12:43:38;;;;;;;11.13;2.53;;;34.10;61.10;;;;;;5017471;28;20124;-79
2022/06/15 12:46:09;;;;;;;9.73;1.70;;;34.50;62.40;;;;;;4981169;28;21105;-77
2022/06/15 12:48:40;;;;;;;11.32;2.67;;;34.40;60.20;;;;;;5015726;28;20061;-77
2022/06/15 12:51:41;;;;;;;13.75;2.63;;;34.40;60.50;;;;;;5018878;28;20108;-78
2022/06/15 12:54:34;;;;;;;14.65;2.90;;;34.50;60.90;;;;;;5030750;28;20036;-77
2022/06/15 12:57:07;;;;;;;17.55;2.60;;;34.60;59.00;;;;;;4993728;28;20025;-78
2022/06/15 13:00:00;;;;;;;13.52;2.47;;;34.60;58.60;;;;;;5037587;28;20112;-78
2022/06/15 13:02:51;;;;;;;16.60;2.75;;;34.50;58.40;;;;;;5037217;28;20071;-79
2022/06/15 13:05:26;;;;;;;7.93;2.20;;;34.70;58.50;;;;;;5034128;28;20076;-78
2022/06/15 13:08:17;;;;;;;13.02;3.10;;;34.90;60.20;;;;;;5027989;28;20096;-76
2022/06/15 13:10:55;;;;;;;9.82;3.15;;;34.80;59.40;;;;;;5018857;28;20052;-75
2022/06/15 13:13:26;;;;;;;9.18;2.45;;;34.90;59.70;;;;;;5036607;28;20021;-73
2022/06/15 13:15:54;;;;;;;7.93;2.20;;;34.90;58.00;;;;;;5014274;28;20052;-72
2022/06/15 13:18:42;;;;;;;9.73;1.95;;;35.20;58.30;;;;;;5037398;28;20022;-73
2022/06/15 13:21:09;;;;;;;8.85;2.53;;;35.30;58.90;;;;;;5011188;28;20029;-74
2022/06/15 13:23:55;;;;;;;7.32;1.90;;;35.30;57.30;;;;;;5029500;28;20382;-73
2022/06/15 13:26:45;;;;;;;12.07;3.20;;;35.40;56.80;;;;;;4991870;28;20136;-73
2022/06/15 13:29:10;;;;;;;10.95;2.47;;;35.70;57.40;;;;;;5036285;28;20053;-73
2022/06/15 13:31:52;;;;;;;14.50;2.88;;;35.90;59.10;;;;;;5019129;28;20032;-73
2022/06/15 13:34:34;;;;;;;9.35;2.70;;;35.90;55.20;;;;;;5037296;28;20023;-73